Flight Track Log - Related Links

Times and Time Zones

All times are in EDT time to prevent confusion due to time zone crossing. See the GJS3707 flight status page for this flight to view local times or setup timezone preferences in your user account.

Time Position Orientation Groundspeed Altitude Reporting Facility
EDT Latitude Longitude Course Direction KTS MPH feet Rate Location/Type
Sun 03:31:16 PM 43.5736 -116.2475 115° Southeast 154 177 3,800  Level Salt Lake Center
Sun 03:32:18 PM 43.5936 -116.3144 292° West 178 205 5,900 2,226 Climbing Salt Lake Center
Sun 03:33:20 PM 43.6450 -116.2961 14° North 216 249 8,400 2,081 Climbing Salt Lake Center
Sun 03:34:00 PM 43.4138 -115.6155 113° Southeast  Level FlightAware Approximate
Sun 03:34:22 PM 43.6336 -116.1969 99° East 249 287 10,200  Level Salt Lake Center
Sun 03:35:00 PM 43.3744 -115.4676 104° East  Level FlightAware Approximate
Sun 03:35:23 PM 43.6097 -116.0903 107° East 302 348 11,100  Level Salt Lake Center
Sun 03:36:00 PM 43.3491 -115.3141 115° Southeast  Level FlightAware Approximate
Sun 03:36:25 PM 43.5789 -115.9672 109° East 322 371 13,100  Level Salt Lake Center
Sun 03:37:27 PM 43.5483 -115.8406 108° East 333 383 14,500 1,645 Climbing Salt Lake Center
Sun 03:38:29 PM 43.5131 -115.7058 110° East 352 405 16,500 1,756 Climbing Salt Lake Center
Sun 03:39:30 PM 43.4825 -115.5783 108° East 360 414 18,100 1,610 Climbing Salt Lake Center
Sun 03:40:32 PM 43.4469 -115.4381 109° East 371 427 19,800 1,742 Climbing Salt Lake Center
Sun 03:41:34 PM 43.4094 -115.2903 109° East 373 429 21,700 1,561 Climbing Salt Lake Center
Sun 03:42:35 PM 43.3761 -115.1592 109° East 379 436 23,000 1,171 Climbing Salt Lake Center
Sun 03:43:37 PM 43.3417 -115.0258 110° East 386 444 24,100 1,258 Climbing Salt Lake Center
Sun 03:44:39 PM 43.3003 -114.8658 110° East 397 457 25,600 1,317 Climbing Salt Lake Center
Sun 03:45:40 PM 43.2650 -114.7300 110° East 396 456 26,800 1,171 Climbing Salt Lake Center
Sun 03:46:42 PM 43.2236 -114.5711 110° East 396 456 28,000 871 Climbing Salt Lake Center
Sun 03:47:44 PM 43.1872 -114.4322 110° East 405 466 28,600 683 Climbing Salt Lake Center
Sun 03:48:45 PM 43.1442 -114.2664 110° East 417 480 29,400 732 Climbing Salt Lake Center
Sun 03:49:47 PM 43.1022 -114.1144 111° Southeast 423 487 30,100 677 Climbing Salt Lake Center
Sun 03:50:49 PM 43.0603 -113.9625 111° Southeast 430 495 30,800 683 Climbing Salt Lake Center
Sun 03:51:50 PM 43.0161 -113.7986 110° East 434 499 31,500 634 Climbing Salt Lake Center
Sun 03:52:52 PM 42.9767 -113.6475 110° East 441 507 32,100 634 Climbing Salt Lake Center
Sun 03:53:53 PM 42.9342 -113.4972 111° Southeast 445 512 32,800 732 Climbing Salt Lake Center
Sun 03:54:55 PM 42.8875 -113.3236 110° East 439 505 33,600 581 Climbing Salt Lake Center
Sun 03:55:57 PM 42.8444 -113.1717 111° Southeast 448 516 34,000 488 Climbing Salt Lake Center
Sun 03:56:58 PM 42.7964 -112.9942 110° East 449 517 34,600 488 Climbing Salt Lake Center
Sun 03:58:00 PM 42.7525 -112.8411 111° Southeast 453 521 35,000 195 Climbing Salt Lake Center
Sun 03:59:01 PM 42.7006 -112.6600 111° Southeast 460 529 35,000  Level Salt Lake Center
Sun 04:00:03 PM 42.6561 -112.5039 111° Southeast 462 532 35,000  Level Salt Lake Center
Sun 04:01:05 PM 42.6094 -112.3417 111° Southeast 460 529 35,000  Level Salt Lake Center
Sun 04:02:06 PM 42.5642 -112.1817 111° Southeast 457 526 35,000  Level Salt Lake Center
Sun 04:03:08 PM 42.5172 -112.0228 112° Southeast 455 524 35,000  Level Salt Lake Center
Sun 04:04:09 PM 42.4711 -111.8658 112° Southeast 451 519 35,000  Level Salt Lake Center
Sun 04:05:11 PM 42.4242 -111.7081 112° Southeast 451 519 35,000  Level Salt Lake Center
Sun 04:06:12 PM 42.3681 -111.5186 112° Southeast 452 520 35,000  Level Salt Lake Center
Sun 04:07:14 PM 42.3217 -111.3617 112° Southeast 451 519 35,000  Level Salt Lake Center
Sun 04:08:16 PM 42.2742 -111.2044 112° Southeast 451 519 35,000  Level Salt Lake Center
Sun 04:09:17 PM 42.2267 -111.0472 112° Southeast 452 520 35,000  Level Salt Lake Center
Sun 04:10:19 PM 42.1775 -110.8789 111° Southeast 452 520 35,000  Level Salt Lake Center
Sun 04:11:20 PM 42.1314 -110.7306 113° Southeast 450 518 35,000  Level Salt Lake Center
Sun 04:12:22 PM 42.0778 -110.5575 113° Southeast 450 518 35,000  Level Salt Lake Center
Sun 04:13:23 PM 42.0322 -110.4083 112° Southeast 452 520 35,000  Level Salt Lake Center
Sun 04:14:25 PM 41.9864 -110.2597 112° Southeast 450 518 35,000  Level Salt Lake Center
Sun 04:15:27 PM 41.9706 -110.0742 96° East 454 522 35,000  Level Salt Lake Center
Sun 04:16:28 PM 41.9736 -109.9150 88° East 448 516 35,000  Level Salt Lake Center
Sun 04:17:30 PM 41.9764 -109.7258 89° East 452 520 35,000  Level Salt Lake Center
Sun 04:18:31 PM 41.9781 -109.5658 89° East 448 516 35,000  Level Salt Lake Center
Sun 04:19:33 PM 41.9803 -109.4047 89° East 448 516 35,000  Level Salt Lake Center
Sun 04:20:35 PM 41.9822 -109.2197 89° East 444 511 35,000  Level Salt Lake Center
Sun 04:21:36 PM 41.9836 -109.0608 89° East 444 511 35,000  Level Salt Lake Center
Sun 04:22:38 PM 41.9858 -108.8747 89° East 443 510 35,000  Level Salt Lake Center
Sun 04:23:40 PM 41.9869 -108.7161 89° East 444 511 35,000  Level Salt Lake Center
Sun 04:24:41 PM 41.9878 -108.5561 90° East 445 512 35,000  Level Salt Lake Center
Sun 04:25:43 PM 41.9892 -108.3719 89° East 442 509 35,000  Level Salt Lake Center
Sun 04:26:44 PM 41.9892 -108.2142 90° East 441 507 35,000  Level Salt Lake Center
Sun 04:27:46 PM 41.9875 -108.0281 91° East 446 513 35,000  Level Salt Lake Center
Sun 04:28:48 PM 41.9869 -107.8686 90° East 446 513 35,000  Level Salt Lake Center
Sun 04:29:49 PM 41.9861 -107.6844 90° East 442 509 35,000  Level Salt Lake Center
Sun 04:30:51 PM 41.9858 -107.5247 90° East 445 512 35,000  Level Salt Lake Center
Sun 04:31:52 PM 41.9842 -107.3686 91° East 439 505 35,000  Level Salt Lake Center
Sun 04:32:54 PM 41.9839 -107.1844 90° East 441 507 35,000  Level Salt Lake Center
Sun 04:33:55 PM 41.9819 -107.0289 91° East 437 503 35,000  Level Salt Lake Center
Sun 04:34:57 PM 41.9786 -106.8461 91° East 440 506 35,000  Level Salt Lake Center
Sun 04:35:59 PM 41.9769 -106.6892 91° East 440 506 35,000  Level Salt Lake Center
Sun 04:37:14 PM 41.9772 -106.4919 90° East 440 506 35,000  Level Denver Center
Sun 04:38:16 PM 41.9728 -106.3067 92° East 442 509 35,000  Level Denver Center
Sun 04:39:18 PM 41.9700 -106.1489 91° East 444 511 35,000  Level Denver Center
Sun 04:40:19 PM 41.9681 -105.9633 91° East 445 512 35,000  Level Denver Center
Sun 04:41:21 PM 41.9633 -105.8044 92° East 446 513 35,000  Level Denver Center
Sun 04:42:23 PM 41.9600 -105.6178 91° East 448 516 35,000  Level Denver Center
Sun 04:43:24 PM 41.9567 -105.4583 92° East 449 517 35,000  Level Denver Center
Sun 04:44:26 PM 41.9517 -105.2697 92° East 454 522 35,000  Level Denver Center
Sun 04:45:28 PM 41.9478 -105.1119 92° East 446 513 35,000  Level Denver Center
Sun 04:46:29 PM 41.9439 -104.9547 92° East 443 510 35,000  Level Denver Center
Sun 04:47:31 PM 41.9383 -104.7703 92° East 445 512 35,000  Level Denver Center
Sun 04:48:33 PM 41.9342 -104.6133 92° East 443 510 35,000  Level Denver Center
Sun 04:49:35 PM 41.9278 -104.4269 93° East 450 518 35,000  Level Denver Center
Sun 04:50:36 PM 41.9231 -104.2700 92° East 444 511 35,000  Level Denver Center
Sun 04:51:38 PM 41.9167 -104.0842 93° East 447 514 35,000  Level Denver Center
Sun 04:52:40 PM 41.9108 -103.9244 93° East 449 517 35,000  Level Denver Center
Sun 04:53:41 PM 41.9036 -103.7389 93° East 448 516 35,000  Level Denver Center
Sun 04:54:43 PM 41.8972 -103.5781 93° East 452 520 35,000  Level Denver Center
Sun 04:55:45 PM 41.9067 -103.3906 86° East 460 529 35,000  Level Denver Center
Sun 04:56:46 PM 41.9289 -103.2308 79° East 458 527 35,000  Level Denver Center
Sun 04:57:48 PM 41.9461 -103.0694 82° East 460 529 35,000  Level Denver Center
Sun 04:58:50 PM 41.9625 -102.8811 83° East 456 525 35,000  Level Denver Center
Sun 04:59:51 PM 41.9781 -102.7186 83° East 459 528 35,000 293 Level Denver Center
Sun 05:00:53 PM 41.9931 -102.5286 84° East 460 529 35,600 780 Climbing Denver Center
Sun 05:01:54 PM 42.0092 -102.3672 82° East 456 525 36,600 683 Climbing Denver Center
Sun 05:02:56 PM 42.0231 -102.1953 84° East 449 517 37,000 194 Climbing Denver Center
Sun 05:03:58 PM 42.0364 -102.0375 83° East 444 511 37,000  Level Denver Center
Sun 05:04:59 PM 42.0514 -101.8528 84° East 445 512 37,000  Level Denver Center
Sun 05:06:13 PM 42.0639 -101.6911 84° East 450 518 37,000  Level Denver Center
Sun 05:07:15 PM 42.0811 -101.4742 84° East 456 525 37,000  Level Denver Center
Sun 05:08:17 PM 42.0933 -101.3119 84° East 456 525 37,000  Level Denver Center
Sun 05:09:18 PM 42.1081 -101.1222 84° East 455 524 37,000  Level Denver Center
Sun 05:10:20 PM 42.1264 -100.9614 81° East 452 520 37,000  Level Denver Center
Sun 05:11:21 PM 42.1600 -100.7789 76° East 450 518 37,000  Level Denver Center
Sun 05:12:23 PM 42.1847 -100.6172 78° East 457 526 37,000  Level Denver Center
Sun 05:13:25 PM 42.2092 -100.4572 78° East 456 525 37,000  Level Denver Center
Sun 05:14:24 PM 42.2267 -100.3281 80° East 456 525 37,000  Level Minneapolis Center
Sun 05:15:26 PM 42.2506 -100.1267 81° East 454 522 37,000  Level Minneapolis Center
Sun 05:16:28 PM 42.2778 -99.9261 80° East 452 520 37,000  Level Minneapolis Center
Sun 05:17:30 PM 42.2894 -99.7539 85° East 458 527 37,000  Level Minneapolis Center
Sun 05:18:33 PM 42.2992 -99.5800 86° East 460 529 37,000  Level Denver Center
Sun 05:19:34 PM 42.3072 -99.4111 86° East 453 521 37,000  Level Denver Center
Sun 05:20:34 PM 42.3133 -99.2794 86° East 447 514 37,000  Level Minneapolis Center
Sun 05:21:36 PM 42.3242 -99.0736 86° East 455 524 37,000  Level Minneapolis Center
Sun 05:22:38 PM 42.3314 -98.9019 87° East 457 526 37,000 290 Level Minneapolis Center
Sun 05:23:40 PM 42.3400 -98.7272 86° East 463 533 37,600 774 Climbing Minneapolis Center
Sun 05:24:42 PM 42.3481 -98.5250 89° East 450 518 38,600 683 Climbing Minneapolis Center
Sun 05:25:00 PM 42.3432 -98.5125 89° East  Level FlightAware Approximate
Sun 05:25:43 PM 42.3550 -98.3614 87° East 439 505 39,000  Level Minneapolis Center
Sun 05:26:45 PM 42.3608 -98.1958 87° East 439 505 39,000  Level Minneapolis Center
Sun 05:27:47 PM 42.3672 -98.0303 87° East 441 507 39,000  Level Minneapolis Center
Sun 05:28:49 PM 42.3728 -97.8631 87° East 443 510 39,000  Level Minneapolis Center
Sun 05:29:51 PM 42.3789 -97.6867 87° East 446 513 39,000  Level Minneapolis Center
Sun 05:30:52 PM 42.3850 -97.5194 87° East 446 513 39,000  Level Minneapolis Center
Sun 05:31:54 PM 42.3900 -97.3508 88° East 447 514 39,000  Level Minneapolis Center
Sun 05:32:56 PM 42.3956 -97.1819 87° East 448 516 39,000  Level Minneapolis Center
Sun 05:33:58 PM 42.4058 -97.0131 85° East 450 518 39,000  Level Minneapolis Center
Sun 05:35:00 PM 42.4319 -96.8439 78° East 456 525 39,000  Level Minneapolis Center
Sun 05:36:01 PM 42.4622 -96.6406 79° East 458 527 39,000  Level Minneapolis Center
Sun 05:37:03 PM 42.4881 -96.4703 78° East 459 528 39,000  Level Minneapolis Center
Sun 05:38:05 PM 42.5186 -96.3022 76° East 459 528 39,000  Level Minneapolis Center
Sun 05:39:07 PM 42.5597 -96.1344 72° East 467 537 39,000  Level Minneapolis Center
Sun 05:40:09 PM 42.5978 -95.9681 73° East 461 531 39,000  Level Minneapolis Center
Sun 05:41:10 PM 42.6331 -95.7983 74° East 464 534 39,000  Level Minneapolis Center
Sun 05:42:12 PM 42.6708 -95.6342 73° East 457 526 39,000  Level Minneapolis Center
Sun 05:43:14 PM 42.6875 -95.4669 82° East 443 510 39,000  Level Minneapolis Center
Sun 05:44:16 PM 42.6808 -95.2719 93° East 430 495 39,000  Level Minneapolis Center
Sun 05:45:18 PM 42.6744 -95.1100 93° East 428 493 39,000  Level Minneapolis Center
Sun 05:46:19 PM 42.6675 -94.9475 93° East 430 495 39,000  Level Minneapolis Center
Sun 05:47:21 PM 42.6617 -94.8167 93° East 432 497 39,000  Level Minneapolis Center
Sun 05:48:23 PM 42.6525 -94.6189 94° East 436 502 39,000  Level Minneapolis Center
Sun 05:49:25 PM 42.6431 -94.4447 94° East 443 510 39,000  Level Minneapolis Center
Sun 05:50:26 PM 42.6344 -94.2772 94° East 448 516 39,000  Level Minneapolis Center
Sun 05:51:28 PM 42.6275 -94.1125 93° East 443 510 39,000  Level Minneapolis Center
Sun 05:52:30 PM 42.6164 -93.9158 94° East 440 506 39,000  Level Minneapolis Center
Sun 05:53:31 PM 42.6083 -93.7522 94° East 439 505 39,000  Level Minneapolis Center
Sun 05:54:33 PM 42.5986 -93.5906 95° East 437 503 39,000  Level Minneapolis Center
Sun 05:55:34 PM 42.5917 -93.4608 94° East 436 502 39,000  Level Minneapolis Center
Sun 05:56:36 PM 42.5808 -93.2669 94° East 435 501 39,000  Level Minneapolis Center
Sun 05:57:38 PM 42.5700 -93.1044 95° East 437 503 39,000  Level Minneapolis Center
Sun 05:58:40 PM 42.5586 -92.9100 94° East 436 502 39,000 -194 Level Minneapolis Center
Sun 05:59:42 PM 42.5492 -92.7497 95° East 432 497 38,600 -683 Descending Minneapolis Center
Sun 06:00:43 PM 42.5383 -92.5861 95° East 438 504 37,600 -976 Descending Minneapolis Center
Sun 06:01:45 PM 42.5269 -92.4192 95° East 447 514 36,600 -919 Descending Minneapolis Center
Sun 06:02:47 PM 42.5158 -92.2528 95° East 449 517 35,700 -829 Descending Minneapolis Center
Sun 06:03:48 PM 42.5019 -92.0556 95° East 447 514 34,900 -674 Descending Minneapolis Center
Sun 06:04:16 PM 42.4978 -91.9892 95° East 446 513 34,700 -472 Descending Chicago Center
Sun 06:05:17 PM 42.4853 -91.8258 96° East 444 511 34,200 -537 Descending Chicago Center
Sun 06:06:19 PM 42.4739 -91.6622 95° East 446 513 33,600 -726 Descending Chicago Center
Sun 06:07:21 PM 42.4594 -91.4650 96° East 449 517 32,700 -871 Descending Chicago Center
Sun 06:08:23 PM 42.4467 -91.2992 96° East 450 518 31,800 -823 Descending Chicago Center
Sun 06:09:25 PM 42.4347 -91.1400 96° East 438 504 31,000 -829 Descending Chicago Center
Sun 06:10:26 PM 42.4225 -90.9825 96° East 429 494 30,100 -927 Descending Chicago Center
Sun 06:11:28 PM 42.4092 -90.8197 96° East 438 504 29,100 -1,065 Descending Chicago Center
Sun 06:12:30 PM 42.4094 -90.6150 90° East 465 535 27,900 -968 Descending Chicago Center
Sun 06:13:32 PM 42.4278 -90.4394 82° East 475 547 27,100 -774 Descending Chicago Center
Sun 06:14:34 PM 42.4456 -90.2700 82° East 464 534 26,300 -677 Descending Chicago Center
Sun 06:15:36 PM 42.4628 -90.0992 82° East 462 532 25,700 -585 Descending Chicago Center
Sun 06:16:37 PM 42.4622 -89.9117 90° East 468 539 25,100 -683 Descending Chicago Center
Sun 06:17:39 PM 42.4531 -89.7411 94° East 455 524 24,300 -823 Descending Chicago Center
Sun 06:18:41 PM 42.4431 -89.5725 95° East 451 519 23,400 -871 Descending Chicago Center
Sun 06:19:43 PM 42.4325 -89.3814 94° East 440 506 22,500 -1,548 Descending Chicago Center
Sun 06:20:45 PM 42.4225 -89.2203 95° East 431 496 20,200 -2,878 Descending Chicago Center
Sun 06:21:46 PM 42.4122 -89.0631 95° East 424 488 16,600 -3,366 Descending Chicago Center
Sun 06:22:48 PM 42.4019 -88.9019 95° East 429 494 13,300 -2,129 Descending Chicago Center
Sun 06:23:50 PM 42.3981 -88.7592 92° East 383 441 12,200 -1,016 Descending Chicago Center
Sun 06:24:52 PM 42.4383 -88.6428 65° Northeast 343 395 11,200 -1,065 Descending Chicago Center
Sun 06:25:54 PM 42.4339 -88.5233 93° East 301 346 10,000 -1,073 Descending Chicago Center
Sun 06:26:55 PM 42.4014 -88.4150 112° Southeast 307 353 9,000 -1,171 Descending Chicago Center
Sun 06:27:57 PM 42.3553 -88.3289 126° Southeast 286 329 7,600 -968 Descending Chicago Center
Sun 06:28:59 PM 42.2961 -88.2778 147° Southeast 269 310 7,000 -387 Descending Chicago Center
Sun 06:30:01 PM 42.2375 -88.2136 141° Southeast 270 311 6,800 -677 Descending Chicago Center
Sun 06:31:03 PM 42.1708 -88.1375 140° Southeast 265 305 5,600 -1,122 Descending Chicago Center
Sun 06:32:04 PM 42.1242 -88.0844 140° Southeast 232 267 4,500 -1,082 Descending Chicago Center

Login

Don't have an account? Register now (free) for customized features, flight alerts, and more!